Time;durP1;ratioP1;P1;durP2;ratioP2;P2;SDS_P1;SDS_P2;PMS_P1;PMS_P2;Temp;Humidity;BMP_temperature;BMP_pressure;BME280_temperature;BME280_humidity;BME280_pressure;Samples;Min_cycle;Max_cycle;Signal;HPM_P1;HPM_P2
2023/04/29 00:01:57;;;;;;;27.52;18.73;;;333.20;2329.60;;;;;;5052433;28;20021;-57
2023/04/29 00:04:25;;;;;;;23.85;18.60;;;333.40;2329.60;;;;;;5052464;28;20025;-53
2023/04/29 00:06:51;;;;;;;27.50;17.45;;;333.30;2329.60;;;;;;5052412;28;20021;-60
2023/04/29 00:09:17;;;;;;;30.73;19.45;;;333.40;2329.60;;;;;;5052633;28;20032;-56
2023/04/29 00:11:43;;;;;;;23.27;17.48;;;333.40;2329.60;;;;;;5052314;28;20025;-54
2023/04/29 00:14:08;;;;;;;22.10;13.90;;;333.20;2329.60;;;;;;5052865;28;20032;-54
2023/04/29 00:16:34;;;;;;;23.75;16.35;;;333.00;2329.60;;;;;;5052463;28;20025;-60
2023/04/29 00:19:01;;;;;;;23.63;16.77;;;332.90;2329.60;;;;;;5040491;28;20496;-54
2023/04/29 00:21:26;;;;;;;25.15;16.65;;;333.00;2329.60;;;;;;5032175;28;20029;-54
2023/04/29 00:23:52;;;;;;;30.40;20.02;;;333.20;2329.60;;;;;;5032214;28;20051;-62
2023/04/29 00:26:18;;;;;;;24.13;15.52;;;333.30;2329.60;;;;;;5051270;28;20009;-54
2023/04/29 00:28:44;;;;;;;24.20;15.52;;;333.40;2329.60;;;;;;5052227;28;20102;-61
2023/04/29 00:31:10;;;;;;;21.83;13.88;;;333.40;2329.60;;;;;;5045725;28;20049;-56
2023/04/29 00:33:35;;;;;;;21.73;18.05;;;333.40;2329.60;;;;;;5032485;28;20112;-61
2023/04/29 00:36:02;;;;;;;30.15;22.52;;;333.40;2329.60;;;;;;5031994;28;20024;-55
2023/04/29 00:38:28;;;;;;;32.80;20.75;;;333.40;2329.60;;;;;;5032217;28;20030;-58
2023/04/29 00:40:54;;;;;;;47.65;31.08;;;333.50;2329.60;;;;;;5031341;28;20491;-53
2023/04/29 00:43:20;;;;;;;30.15;21.67;;;333.50;2329.60;;;;;;5031801;28;20037;-55
2023/04/29 00:45:46;;;;;;;38.20;24.55;;;333.60;2329.60;;;;;;5032123;28;20026;-54
2023/04/29 00:48:14;;;;;;;34.08;24.38;;;333.60;2329.60;;;;;;5032009;28;20018;-54
2023/04/29 00:50:40;;;;;;;26.17;19.38;;;333.60;2329.60;;;;;;5030389;28;20256;-54
2023/04/29 00:53:07;;;;;;;27.27;20.42;;;333.60;2329.60;;;;;;5038892;28;20045;-54
2023/04/29 00:55:34;;;;;;;39.50;27.13;;;333.50;2329.60;;;;;;5051558;28;20082;-58
2023/04/29 00:58:01;;;;;;;30.00;23.23;;;333.50;2329.60;;;;;;5051576;28;20426;-56
2023/04/29 01:00:27;;;;;;;27.92;19.15;;;333.40;2329.60;;;;;;5051703;28;20462;-54
2023/04/29 01:02:56;;;;;;;33.03;19.63;;;333.50;2329.60;;;;;;5051429;28;20067;-58
2023/04/29 01:05:23;;;;;;;25.88;18.17;;;333.40;2329.60;;;;;;5051197;28;20021;-57
2023/04/29 01:08:16;;;;;;;32.50;22.50;;;333.20;2329.60;;;;;;5051742;28;20029;-54
2023/04/29 01:10:48;;;;;;;43.95;23.50;;;333.30;2329.60;;;;;;5051774;28;20064;-55
2023/04/29 01:13:28;;;;;;;26.30;18.43;;;333.20;2329.60;;;;;;5051216;28;20013;-62
2023/04/29 01:16:02;;;;;;;26.02;16.70;;;333.30;2329.60;;;;;;5051209;28;20052;-54
2023/04/29 01:18:53;;;;;;;39.47;24.25;;;333.20;2329.60;;;;;;5051247;28;20037;-55
2023/04/29 01:21:20;;;;;;;36.75;23.27;;;333.20;2329.60;;;;;;5050796;28;20032;-56
2023/04/29 01:23:45;;;;;;;47.75;28.55;;;333.20;2329.60;;;;;;5051478;28;20033;-54
2023/04/29 01:26:11;;;;;;;47.20;25.40;;;333.20;2329.60;;;;;;5051105;28;20471;-57
2023/04/29 01:28:40;;;;;;;47.10;31.13;;;333.30;2329.60;;;;;;5047986;28;20379;-54
2023/04/29 01:31:14;;;;;;;34.83;23.60;;;333.40;2329.60;;;;;;5046852;28;20040;-56
2023/04/29 01:33:57;;;;;;;30.33;19.48;;;333.20;2329.60;;;;;;5040731;28;20025;-55
2023/04/29 01:36:26;;;;;;;26.60;19.35;;;333.20;2329.60;;;;;;5034498;28;20036;-54
2023/04/29 01:39:15;;;;;;;31.27;19.60;;;333.30;2329.60;;;;;;5030756;28;20041;-53
2023/04/29 01:41:57;;;;;;;24.42;16.98;;;333.10;2329.60;;;;;;5031018;28;20025;-54
2023/04/29 01:44:26;;;;;;;20.20;15.55;;;333.20;2329.60;;;;;;5030645;28;20022;-54
2023/04/29 01:46:53;;;;;;;22.13;16.15;;;333.20;2329.60;;;;;;5030617;28;20018;-54
2023/04/29 01:49:28;;;;;;;20.55;15.95;;;333.10;2329.60;;;;;;5046815;28;20031;-53
2023/04/29 01:51:54;;;;;;;18.95;14.02;;;332.80;2329.60;;;;;;5038206;28;20032;-56
2023/04/29 01:54:23;;;;;;;42.50;25.45;;;332.80;2329.60;;;;;;5037162;28;20525;-54
2023/04/29 01:56:50;;;;;;;27.27;14.95;;;332.80;2329.60;;;;;;5050479;28;20106;-56
2023/04/29 01:59:16;;;;;;;28.70;16.50;;;332.90;2329.60;;;;;;5050441;28;20475;-54
2023/04/29 02:01:42;;;;;;;22.58;16.40;;;333.00;2329.60;;;;;;5050048;28;20027;-54
2023/04/29 02:04:08;;;;;;;31.83;20.67;;;333.00;2329.60;;;;;;5050616;28;20052;-54
2023/04/29 02:06:34;;;;;;;18.95;14.63;;;333.10;2329.60;;;;;;5050309;28;20090;-54
2023/04/29 02:08:59;;;;;;;27.60;15.68;;;333.10;2329.60;;;;;;5049917;28;20025;-56
2023/04/29 02:11:25;;;;;;;22.67;13.88;;;333.20;2329.60;;;;;;5050290;28;20021;-54
2023/04/29 02:13:51;;;;;;;21.15;15.88;;;333.10;2329.60;;;;;;5042702;28;20396;-59
2023/04/29 02:16:17;;;;;;;19.85;13.77;;;333.20;2329.60;;;;;;5044215;28;20036;-60
2023/04/29 02:18:43;;;;;;;18.92;13.90;;;333.20;2329.60;;;;;;5050095;28;20398;-59
2023/04/29 02:21:09;;;;;;;18.10;14.18;;;333.20;2329.60;;;;;;5049696;28;20033;-61
2023/04/29 02:23:35;;;;;;;21.65;14.02;;;333.20;2329.60;;;;;;5049928;28;20128;-60
2023/04/29 02:26:02;;;;;;;17.63;14.10;;;333.20;2329.60;;;;;;5049402;28;20028;-54
2023/04/29 02:28:28;;;;;;;22.30;14.77;;;333.00;2329.60;;;;;;5050165;28;20029;-61
2023/04/29 02:30:54;;;;;;;19.50;14.48;;;333.00;2329.60;;;;;;5049734;28;20376;-62
2023/04/29 02:33:19;;;;;;;18.15;13.57;;;333.10;2329.60;;;;;;5049839;28;20489;-62
2023/04/29 02:35:45;;;;;;;21.65;15.30;;;333.10;2329.60;;;;;;5049673;28;20025;-62
2023/04/29 02:38:12;;;;;;;21.35;13.85;;;333.20;2329.60;;;;;;5049838;28;20075;-56
2023/04/29 02:40:42;;;;;;;19.77;14.52;;;333.10;2329.60;;;;;;5049521;28;20467;-62
2023/04/29 02:43:08;;;;;;;18.48;13.75;;;333.00;2329.60;;;;;;5049057;28;20371;-55
2023/04/29 02:45:34;;;;;;;20.33;13.85;;;333.00;2329.60;;;;;;5049722;28;20107;-62
2023/04/29 02:48:00;;;;;;;18.58;12.50;;;333.00;2329.60;;;;;;5049474;28;20017;-58
2023/04/29 02:50:26;;;;;;;19.25;14.57;;;333.00;2329.60;;;;;;5049458;28;20391;-61
2023/04/29 02:52:51;;;;;;;28.90;19.80;;;333.00;2329.60;;;;;;5049486;28;20061;-55
2023/04/29 02:55:17;;;;;;;28.85;17.95;;;333.00;2329.60;;;;;;5049393;28;20035;-55
2023/04/29 02:57:43;;;;;;;25.02;16.35;;;333.10;2329.60;;;;;;5049594;28;20083;-62
2023/04/29 03:00:09;;;;;;;25.58;17.38;;;333.10;2329.60;;;;;;5049543;28;20033;-62
2023/04/29 03:02:36;;;;;;;19.27;15.80;;;333.10;2329.60;;;;;;5049534;28;20065;-63
2023/04/29 03:05:05;;;;;;;21.00;16.73;;;333.10;2329.60;;;;;;5049226;28;20024;-62
2023/04/29 03:07:31;;;;;;;20.02;16.17;;;333.10;2329.60;;;;;;5040598;28;20052;-54
2023/04/29 03:09:56;;;;;;;17.88;14.35;;;333.20;2329.60;;;;;;5044660;28;20475;-63
2023/04/29 03:12:22;;;;;;;21.00;15.02;;;333.10;2329.60;;;;;;5049517;28;20025;-56
2023/04/29 03:14:48;;;;;;;23.73;16.40;;;333.10;2329.60;;;;;;5048932;28;20425;-64
2023/04/29 03:17:14;;;;;;;18.83;15.40;;;333.10;2329.60;;;;;;5049414;28;20491;-61
2023/04/29 03:19:40;;;;;;;27.67;16.60;;;332.80;2329.60;;;;;;5048706;28;20126;-65
2023/04/29 03:22:08;;;;;;;15.70;12.38;;;308.00;2304.00;;;;;;5049249;28;20048;-63
2023/04/29 03:24:34;;;;;;;16.98;11.80;;;307.90;2304.00;;;;;;5048508;28;20471;-64
2023/04/29 03:27:00;;;;;;;27.85;11.40;;;307.90;2304.00;;;;;;5048872;28;20029;-56
2023/04/29 03:29:26;;;;;;;14.18;10.48;;;307.80;2304.00;;;;;;5049092;28;20523;-63
2023/04/29 03:31:53;;;;;;;12.98;10.65;;;307.70;2304.00;;;;;;5048729;28;20028;-60
2023/04/29 03:34:19;;;;;;;14.85;10.63;;;307.60;2304.00;;;;;;5049007;28;20035;-59
2023/04/29 03:36:44;;;;;;;16.02;12.00;;;307.50;2304.00;;;;;;5048856;28;20033;-61
2023/04/29 03:39:11;;;;;;;15.07;11.63;;;307.60;2304.00;;;;;;5049170;28;20025;-55
2023/04/29 03:41:37;;;;;;;18.83;13.52;;;307.70;2304.00;;;;;;5048950;28;20033;-61
2023/04/29 03:44:04;;;;;;;15.05;12.40;;;307.80;2304.00;;;;;;5048748;28;20021;-63
2023/04/29 03:46:29;;;;;;;23.42;14.88;;;307.90;2304.00;;;;;;5049167;28;20021;-61
2023/04/29 03:48:55;;;;;;;17.77;14.05;;;308.00;2304.00;;;;;;5049103;28;20520;-60
2023/04/29 03:51:23;;;;;;;17.73;12.75;;;308.10;2304.00;;;;;;5048351;28;20020;-59
2023/04/29 03:53:49;;;;;;;19.92;13.95;;;332.80;2329.60;;;;;;5048559;28;20415;-60
2023/04/29 03:56:15;;;;;;;20.20;13.10;;;332.90;2329.60;;;;;;5048908;28;20138;-61
2023/04/29 03:58:41;;;;;;;18.00;12.60;;;332.80;2329.60;;;;;;5048520;28;20108;-59
2023/04/29 04:01:07;;;;;;;18.27;11.80;;;332.90;2329.60;;;;;;5049083;28;20029;-62
2023/04/29 04:03:32;;;;;;;19.73;12.07;;;332.90;2329.60;;;;;;5048447;28;20029;-56
2023/04/29 04:05:58;;;;;;;16.17;11.80;;;332.80;2329.60;;;;;;5048684;28;20025;-60
2023/04/29 04:08:24;;;;;;;20.88;10.63;;;332.90;2329.60;;;;;;5048268;28;20061;-60
2023/04/29 04:10:50;;;;;;;14.23;11.73;;;332.90;2329.60;;;;;;5047315;28;20029;-62
2023/04/29 04:13:15;;;;;;;14.80;12.20;;;332.90;2329.60;;;;;;5048624;28;20119;-56
2023/04/29 04:15:41;;;;;;;13.63;10.90;;;333.00;2329.60;;;;;;5049629;28;20031;-60
2023/04/29 04:18:07;;;;;;;14.60;11.05;;;333.20;2329.60;;;;;;5052166;28;20025;-60
2023/04/29 04:20:36;;;;;;;14.68;11.38;;;333.20;2329.60;;;;;;5052050;28;20037;-54
2023/04/29 04:23:01;;;;;;;15.30;11.45;;;333.20;2329.60;;;;;;5051832;28;20021;-54
2023/04/29 04:25:28;;;;;;;15.55;12.05;;;333.30;2329.60;;;;;;5052404;28;20029;-61
2023/04/29 04:27:53;;;;;;;14.32;11.25;;;333.50;2329.60;;;;;;5051978;28;20025;-62
2023/04/29 04:30:19;;;;;;;18.02;11.73;;;333.60;2329.60;;;;;;5052243;28;20486;-63
2023/04/29 04:32:45;;;;;;;16.98;12.73;;;333.70;2329.60;;;;;;5051813;28;20528;-62
2023/04/29 04:35:11;;;;;;;16.27;13.25;;;333.70;2329.60;;;;;;5052187;28;20029;-59
2023/04/29 04:37:37;;;;;;;17.92;13.45;;;333.70;2329.60;;;;;;5051839;28;20021;-63
2023/04/29 04:40:03;;;;;;;19.50;14.70;;;358.40;2329.60;;;;;;5051814;28;20039;-56
2023/04/29 04:42:29;;;;;;;24.30;16.83;;;358.40;2329.60;;;;;;5051712;28;20036;-62
2023/04/29 04:44:56;;;;;;;19.58;14.13;;;358.60;2329.60;;;;;;5052199;28;20021;-63
2023/04/29 04:47:22;;;;;;;19.67;14.18;;;358.80;2329.60;;;;;;5051537;28;20021;-60
2023/04/29 04:49:48;;;;;;;18.40;13.90;;;359.00;2329.60;;;;;;5051804;28;20025;-55
2023/04/29 04:52:15;;;;;;;17.77;12.30;;;358.90;2329.60;;;;;;5051013;28;20049;-63
2023/04/29 04:54:43;;;;;;;20.02;13.73;;;358.90;2329.60;;;;;;5051740;28;20033;-58
2023/04/29 04:57:09;;;;;;;19.73;13.27;;;358.80;2329.60;;;;;;5051960;28;20017;-56
2023/04/29 04:59:35;;;;;;;17.88;12.65;;;358.70;2329.60;;;;;;5051648;28;20036;-63
2023/04/29 05:02:01;;;;;;;19.70;14.10;;;358.70;2329.60;;;;;;5051416;28;20127;-62
2023/04/29 05:04:26;;;;;;;17.65;13.52;;;358.80;2329.60;;;;;;5051886;28;20055;-59
2023/04/29 05:06:52;;;;;;;19.20;13.77;;;358.80;2329.60;;;;;;5051474;28;20021;-61
2023/04/29 05:09:18;;;;;;;18.35;13.45;;;358.90;2329.60;;;;;;5051506;28;20029;-60
2023/04/29 05:11:43;;;;;;;17.75;13.55;;;358.90;2329.60;;;;;;5050927;28;20029;-61
2023/04/29 05:14:09;;;;;;;21.48;15.57;;;358.90;2329.60;;;;;;5042043;28;20112;-57
2023/04/29 05:16:35;;;;;;;22.75;13.98;;;358.90;2329.60;;;;;;5051497;28;20356;-61
2023/04/29 05:19:01;;;;;;;23.63;14.40;;;358.90;2329.60;;;;;;5051114;28;20571;-59
2023/04/29 05:21:26;;;;;;;19.88;14.38;;;358.70;2329.60;;;;;;5050709;28;20060;-55
2023/04/29 05:23:52;;;;;;;18.83;14.13;;;358.80;2329.60;;;;;;5050907;28;20035;-61
2023/04/29 05:26:18;;;;;;;18.88;13.98;;;358.70;2329.60;;;;;;5050520;28;20017;-60
2023/04/29 05:28:43;;;;;;;18.88;14.95;;;358.70;2329.60;;;;;;5050282;28;20115;-61
2023/04/29 05:31:10;;;;;;;24.05;14.68;;;358.60;2329.60;;;;;;5050642;28;20017;-55
2023/04/29 05:33:35;;;;;;;16.98;13.43;;;358.60;2329.60;;;;;;5051069;28;20025;-62
2023/04/29 05:36:01;;;;;;;19.67;14.20;;;358.60;2329.60;;;;;;5050622;28;20364;-62
2023/04/29 05:38:27;;;;;;;17.92;15.02;;;358.70;2329.60;;;;;;5050940;28;20040;-56
2023/04/29 05:40:56;;;;;;;20.02;15.15;;;358.70;2329.60;;;;;;5050386;28;20478;-55
2023/04/29 05:43:22;;;;;;;22.23;17.02;;;358.80;2329.60;;;;;;5050569;28;20029;-55
2023/04/29 05:45:48;;;;;;;25.30;16.05;;;359.00;2329.60;;;;;;5050630;28;20478;-55
2023/04/29 05:48:14;;;;;;;26.20;16.42;;;359.10;2329.60;;;;;;5050704;28;20025;-54
2023/04/29 05:50:40;;;;;;;23.52;15.30;;;384.00;2329.60;;;;;;5050121;28;20057;-55
2023/04/29 05:53:06;;;;;;;21.30;15.60;;;384.10;2329.60;;;;;;5050483;28;20606;-64
2023/04/29 05:55:31;;;;;;;21.30;15.52;;;384.70;2329.60;;;;;;5050234;28;20060;-55
2023/04/29 05:57:57;;;;;;;39.78;24.88;;;409.70;2355.20;;;;;;5050602;28;20032;-55
2023/04/29 06:00:23;;;;;;;28.05;20.05;;;410.00;2355.20;;;;;;5049811;28;20033;-60
2023/04/29 06:02:49;;;;;;;40.85;26.45;;;410.40;2355.20;;;;;;5050212;28;20032;-60
2023/04/29 06:05:15;;;;;;;35.92;23.05;;;435.50;2329.60;;;;;;5050224;28;20025;-63
2023/04/29 06:07:42;;;;;;;27.42;21.83;;;436.10;2227.20;;;;;;5050399;28;20483;-64
2023/04/29 06:10:08;;;;;;;28.00;22.75;;;512.40;1945.60;;;;;;5049955;28;20471;-63
2023/04/29 06:12:34;;;;;;;31.23;22.58;;;614.80;1664.00;;;;;;5050377;28;20363;-64
2023/04/29 06:15:00;;;;;;;28.20;23.10;;;640.70;1510.40;;;;;;5050144;28;20021;-63
2023/04/29 06:17:28;;;;;;;29.70;20.50;;;692.10;1408.00;;;;;;5050210;28;20473;-63
2023/04/29 06:19:55;;;;;;;25.05;21.17;;;691.30;1382.40;;;;;;5049694;28;20116;-65
2023/04/29 06:22:21;;;;;;;23.30;20.90;;;666.30;1382.40;;;;;;5049907;28;20036;-61
2023/04/29 06:24:48;;;;;;;28.65;21.50;;;615.30;1459.20;;;;;;5045001;28;20026;-62
2023/04/29 06:27:14;;;;;;;27.70;21.45;;;589.20;1561.60;;;;;;5041448;28;20482;-56
2023/04/29 06:29:41;;;;;;;31.27;22.75;;;588.90;1587.20;;;;;;5049804;28;20021;-58
2023/04/29 06:32:07;;;;;;;32.35;24.42;;;563.50;1689.60;;;;;;5049880;28;20060;-55
2023/04/29 06:34:32;;;;;;;40.92;28.83;;;538.30;1664.00;;;;;;5049311;28;20472;-56
2023/04/29 06:36:58;;;;;;;37.58;29.42;;;537.60;1715.20;;;;;;5049650;28;20028;-63
2023/04/29 06:39:24;;;;;;;39.13;31.15;;;512.40;1740.80;;;;;;5049171;28;20387;-56
2023/04/29 06:41:50;;;;;;;46.42;35.45;;;512.80;1740.80;;;;;;5049771;28;20112;-57
2023/04/29 06:44:17;;;;;;;41.97;33.45;;;512.80;1792.00;;;;;;5049687;28;20036;-56
2023/04/29 06:46:43;;;;;;;42.17;31.15;;;512.60;1792.00;;;;;;5049542;28;20029;-56
2023/04/29 06:49:09;;;;;;;40.85;31.70;;;512.50;1792.00;;;;;;5049407;28;20031;-55
2023/04/29 06:51:36;;;;;;;41.85;33.55;;;512.40;1740.80;;;;;;5037680;28;20025;-60
2023/04/29 06:54:03;;;;;;;44.15;31.67;;;512.50;1740.80;;;;;;5047847;28;20107;-55
2023/04/29 06:56:29;;;;;;;41.58;29.73;;;512.30;1766.40;;;;;;5049513;28;20025;-56
2023/04/29 06:58:54;;;;;;;37.45;29.13;;;487.20;1766.40;;;;;;5048860;28;20025;-56
2023/04/29 07:01:20;;;;;;;43.78;28.63;;;487.30;1766.40;;;;;;5049624;28;20198;-59
2023/04/29 07:03:46;;;;;;;37.40;29.70;;;487.20;1766.40;;;;;;5049714;28;20029;-56
2023/04/29 07:06:12;;;;;;;50.92;27.38;;;487.30;1766.40;;;;;;5049641;28;20036;-56
2023/04/29 07:08:38;;;;;;;40.22;29.70;;;487.10;1766.40;;;;;;5049481;28;20017;-62
2023/04/29 07:11:04;;;;;;;35.80;26.65;;;487.20;1843.20;;;;;;5049413;28;20017;-60
2023/04/29 07:13:30;;;;;;;44.50;33.28;;;487.30;1792.00;;;;;;5048742;28;20029;-60
2023/04/29 07:15:55;;;;;;;42.65;29.88;;;486.80;1817.60;;;;;;5049288;28;20549;-58
2023/04/29 07:18:21;;;;;;;37.75;27.67;;;486.40;1843.20;;;;;;5048781;28;20035;-56
2023/04/29 07:20:47;;;;;;;39.72;30.85;;;486.40;1843.20;;;;;;5048844;28;20036;-56
2023/04/29 07:23:13;;;;;;;44.15;31.02;;;486.60;1843.20;;;;;;5048900;28;20079;-59
2023/04/29 07:25:40;;;;;;;41.47;29.45;;;486.50;1843.20;;;;;;5049505;28;20067;-62
2023/04/29 07:28:07;;;;;;;38.22;29.67;;;486.60;1868.80;;;;;;5049154;28;20028;-60
2023/04/29 07:30:33;;;;;;;43.97;32.40;;;486.80;1868.80;;;;;;5048953;28;20025;-56
2023/04/29 07:32:59;;;;;;;45.78;33.03;;;486.70;1868.80;;;;;;5048872;28;20017;-57
2023/04/29 07:35:25;;;;;;;56.80;34.35;;;486.50;1843.20;;;;;;5046983;28;20044;-56
2023/04/29 07:37:51;;;;;;;54.97;36.38;;;486.40;1868.80;;;;;;5048661;28;20372;-56
2023/04/29 07:40:16;;;;;;;52.97;33.28;;;461.50;1894.40;;;;;;5048833;28;20036;-60
2023/04/29 07:42:42;;;;;;;50.70;35.67;;;486.40;1894.40;;;;;;5048670;28;20013;-57
2023/04/29 07:45:09;;;;;;;47.70;35.75;;;461.40;1945.60;;;;;;5048869;28;20033;-57
2023/04/29 07:47:35;;;;;;;46.40;33.10;;;461.50;1920.00;;;;;;5048993;28;20025;-57
2023/04/29 07:50:01;;;;;;;51.75;38.42;;;461.50;1920.00;;;;;;5048446;28;20103;-55
2023/04/29 07:52:27;;;;;;;54.58;39.58;;;486.40;1920.00;;;;;;5052388;28;20503;-59
2023/04/29 07:54:55;;;;;;;51.60;40.05;;;486.40;1920.00;;;;;;5052630;28;20025;-59
2023/04/29 07:57:20;;;;;;;56.92;44.75;;;486.60;1894.40;;;;;;5052588;28;20095;-56
2023/04/29 07:59:49;;;;;;;61.50;45.50;;;461.60;1945.60;;;;;;5052961;28;20507;-62
2023/04/29 08:02:15;;;;;;;58.35;45.53;;;461.60;1945.60;;;;;;5052431;28;20017;-69
2023/04/29 08:04:41;;;;;;;57.53;40.40;;;461.60;1945.60;;;;;;5052333;28;20032;-62
2023/04/29 08:07:07;;;;;;;51.58;37.80;;;461.40;1945.60;;;;;;5051966;28;20021;-64
2023/04/29 08:09:33;;;;;;;60.17;42.45;;;461.50;1945.60;;;;;;5052926;28;20055;-61
2023/04/29 08:12:00;;;;;;;55.85;40.22;;;461.60;1945.60;;;;;;5052544;28;20447;-68
2023/04/29 08:14:26;;;;;;;63.67;43.42;;;486.50;1945.60;;;;;;5052388;28;20124;-73
2023/04/29 08:16:53;;;;;;;63.35;45.08;;;486.60;1894.40;;;;;;5052079;28;20100;-65
2023/04/29 08:19:20;;;;;;;60.17;42.50;;;486.50;1920.00;;;;;;5052428;28;20047;-65
2023/04/29 08:21:46;;;;;;;53.25;39.72;;;486.70;1894.40;;;;;;5052118;28;20475;-65
2023/04/29 08:24:12;;;;;;;48.03;36.70;;;487.20;1843.20;;;;;;5052331;28;20047;-68
2023/04/29 08:26:41;;;;;;;54.63;38.03;;;512.10;1817.60;;;;;;5052495;28;20047;-63
2023/04/29 08:29:07;;;;;;;45.88;31.45;;;512.50;1817.60;;;;;;5052228;28;20029;-66
2023/04/29 08:31:33;;;;;;;45.38;32.50;;;512.60;1792.00;;;;;;5048353;28;20383;-60
2023/04/29 08:33:58;;;;;;;43.47;33.08;;;512.70;1817.60;;;;;;5033133;28;20078;-60
2023/04/29 08:36:26;;;;;;;45.30;31.52;;;512.70;1817.60;;;;;;5030958;28;20449;-73
2023/04/29 08:38:52;;;;;;;39.88;33.95;;;512.10;1868.80;;;;;;5031726;28;20060;-60
2023/04/29 08:41:18;;;;;;;36.15;29.52;;;512.20;1868.80;;;;;;5032281;28;20060;-63
2023/04/29 08:43:43;;;;;;;38.97;30.27;;;512.30;1868.80;;;;;;5033258;28;20037;-73
2023/04/29 08:46:10;;;;;;;41.72;30.15;;;512.50;1868.80;;;;;;5044080;28;20083;-63
2023/04/29 08:48:38;;;;;;;40.08;31.67;;;512.40;1868.80;;;;;;5032541;28;20116;-76
2023/04/29 08:51:04;;;;;;;39.85;28.05;;;512.40;1868.80;;;;;;5043754;28;20399;-60
2023/04/29 08:53:30;;;;;;;34.28;27.75;;;512.40;1894.40;;;;;;5051775;28;20053;-74
2023/04/29 08:56:00;;;;;;;33.03;26.45;;;512.30;1894.40;;;;;;5039709;28;20018;-68
2023/04/29 08:58:28;;;;;;;38.08;27.45;;;512.30;1894.40;;;;;;5032322;28;20026;-60
2023/04/29 09:00:54;;;;;;;33.08;23.95;;;512.50;1920.00;;;;;;5037901;28;20033;-68
2023/04/29 09:03:41;;;;;;;27.50;21.55;;;512.70;1868.80;;;;;;5030090;28;20033;-67
2023/04/29 09:06:10;;;;;;;37.30;25.75;;;512.50;1894.40;;;;;;5029937;28;20044;-63
2023/04/29 09:08:36;;;;;;;44.97;32.17;;;512.90;1868.80;;;;;;5041850;28;20497;-65
2023/04/29 09:11:03;;;;;;;27.58;21.42;;;512.70;1920.00;;;;;;5029654;28;20057;-61
2023/04/29 09:13:30;;;;;;;32.80;26.88;;;512.80;1894.40;;;;;;5032372;28;20047;-68
2023/04/29 09:15:57;;;;;;;36.38;27.92;;;512.90;1920.00;;;;;;5047198;28;20422;-60
2023/04/29 09:18:45;;;;;;;32.40;24.02;;;512.70;1920.00;;;;;;5049015;28;20031;-63
2023/04/29 09:21:18;;;;;;;28.73;23.00;;;538.00;1894.40;;;;;;5025525;28;20364;-65
2023/04/29 09:23:44;;;;;;;;;;;538.20;1894.40;;;;;;5048372;28;20033;-70
2023/04/29 09:26:10;;;;;;;29.90;22.05;;;538.50;1868.80;;;;;;5049477;28;19961;-61
2023/04/29 09:28:36;;;;;;;21.83;18.45;;;563.50;1843.20;;;;;;5047547;28;20107;-70
2023/04/29 09:31:06;;;;;;;30.63;20.77;;;588.80;1792.00;;;;;;5038329;28;20032;-66
2023/04/29 09:33:53;;;;;;;27.98;19.77;;;589.10;1792.00;;;;;;5049732;28;20043;-64
2023/04/29 09:36:41;;;;;;;22.55;18.40;;;563.70;1792.00;;;;;;5049400;28;20040;-63
2023/04/29 09:39:39;;;;;;;28.40;21.35;;;564.10;1766.40;;;;;;5026676;28;20098;-62
2023/04/29 09:42:05;;;;;;;28.98;22.70;;;564.10;1766.40;;;;;;5048669;28;20733;-59
2023/04/29 09:44:34;;;;;;;26.73;16.95;;;563.60;1817.60;;;;;;5049441;28;20031;-63
2023/04/29 09:47:08;;;;;;;25.63;21.55;;;588.80;1792.00;;;;;;5049401;28;20482;-60
2023/04/29 09:49:44;;;;;;;23.52;17.63;;;589.00;1792.00;;;;;;5049041;28;20033;-63
2023/04/29 09:52:15;;;;;;;25.98;16.00;;;588.80;1766.40;;;;;;5049049;28;20594;-60
2023/04/29 09:54:42;;;;;;;16.88;12.90;;;563.70;1817.60;;;;;;5048629;28;20074;-60
2023/04/29 09:57:10;;;;;;;27.38;18.73;;;563.50;1766.40;;;;;;5049328;28;20078;-69
2023/04/29 09:59:40;;;;;;;21.98;17.05;;;564.10;1766.40;;;;;;5048838;28;20106;-61
2023/04/29 10:02:14;;;;;;;23.55;16.17;;;563.70;1843.20;;;;;;5049298;28;20104;-68
2023/04/29 10:04:43;;;;;;;19.38;13.30;;;563.50;1843.20;;;;;;5048871;28;20055;-60
2023/04/29 10:07:14;;;;;;;7.30;5.95;;;564.00;1792.00;;;;;;5048990;28;20020;-70
2023/04/29 10:09:40;;;;;;;10.32;5.45;;;589.20;1638.40;;;;;;5048957;28;20017;-60
2023/04/29 10:12:07;;;;;;;9.10;5.68;;;614.40;1612.80;;;;;;5048738;28;20076;-70
2023/04/29 10:14:42;;;;;;;8.30;4.32;;;614.50;1561.60;;;;;;5048170;28;20029;-62
2023/04/29 10:17:17;;;;;;;5.90;4.68;;;614.40;1561.60;;;;;;5048927;28;20033;-71
2023/04/29 10:20:01;;;;;;;5.88;4.88;;;614.40;1536.00;;;;;;5048321;28;20049;-64
2023/04/29 10:22:39;;;;;;;6.93;4.72;;;589.70;1536.00;;;;;;5048728;28;20037;-69
2023/04/29 10:25:06;;;;;;;8.07;5.25;;;614.60;1536.00;;;;;;5023780;28;20053;-72
2023/04/29 10:27:34;;;;;;;9.43;5.00;;;614.40;1536.00;;;;;;5050455;28;20078;-83
2023/04/29 10:30:01;;;;;;;8.70;5.60;;;614.50;1510.40;;;;;;5050633;28;20028;-62
2023/04/29 10:32:29;;;;;;;10.27;5.47;;;614.40;1510.40;;;;;;5049518;28;20117;-60
2023/04/29 10:34:57;;;;;;;12.18;5.05;;;614.50;1510.40;;;;;;5037930;28;20029;-64
2023/04/29 10:37:23;;;;;;;7.45;4.95;;;589.70;1536.00;;;;;;5049528;28;20475;-62
2023/04/29 10:40:16;;;;;;;7.97;4.78;;;589.60;1561.60;;;;;;5049970;28;20041;-60
2023/04/29 10:42:50;;;;;;;6.55;4.22;;;589.50;1561.60;;;;;;5049559;28;20017;-60
2023/04/29 10:45:27;;;;;;;6.03;4.40;;;589.40;1561.60;;;;;;5050006;28;20086;-59
2023/04/29 10:48:02;;;;;;;10.20;7.30;;;589.40;1587.20;;;;;;5021127;28;20025;-59
2023/04/29 10:50:46;;;;;;;9.40;4.47;;;589.40;1612.80;;;;;;5032890;28;20032;-63
2023/04/29 10:53:15;;;;;;;6.75;4.00;;;589.20;1612.80;;;;;;5049259;28;20507;-61
2023/04/29 10:55:42;;;;;;;6.18;4.55;;;589.30;1587.20;;;;;;5049683;28;20498;-61
2023/04/29 10:58:44;;;;;;;6.78;4.50;;;589.40;1587.20;;;;;;5036533;28;20112;-71
2023/04/29 11:01:16;;;;;;;8.90;4.32;;;589.30;1561.60;;;;;;5030188;28;20078;-61
2023/04/29 11:04:08;;;;;;;9.63;5.32;;;589.50;1587.20;;;;;;5049612;28;20357;-61
2023/04/29 11:06:34;;;;;;;6.45;4.70;;;614.40;1587.20;;;;;;5049181;28;20029;-63
2023/04/29 11:09:11;;;;;;;11.85;6.13;;;589.50;1638.40;;;;;;5049325;28;20037;-70
2023/04/29 11:11:45;;;;;;;8.82;5.65;;;589.40;1638.40;;;;;;5049580;28;20055;-60
2023/04/29 11:14:12;;;;;;;9.07;5.80;;;589.40;1612.80;;;;;;5039293;28;20036;-60
2023/04/29 11:16:48;;;;;;;9.25;6.28;;;589.40;1612.80;;;;;;5046231;28;20095;-58
2023/04/29 11:19:15;;;;;;;8.10;6.47;;;589.50;1587.20;;;;;;5048858;28;20051;-62
2023/04/29 11:21:43;;;;;;;8.93;6.22;;;589.50;1612.80;;;;;;5049006;28;20029;-60
2023/04/29 11:24:09;;;;;;;6.50;4.63;;;589.40;1612.80;;;;;;5049314;28;20081;-60
2023/04/29 11:26:35;;;;;;;7.47;5.50;;;588.80;1612.80;;;;;;5048834;28;20412;-59
2023/04/29 11:29:01;;;;;;;11.85;6.30;;;564.10;1638.40;;;;;;5048761;28;20033;-60
2023/04/29 11:31:31;;;;;;;9.65;8.38;;;589.00;1638.40;;;;;;5049188;28;20104;-60
2023/04/29 11:33:58;;;;;;;15.90;7.63;;;589.30;1587.20;;;;;;5048645;28;20025;-62
2023/04/29 11:36:24;;;;;;;7.45;5.65;;;589.40;1587.20;;;;;;5048468;28;20043;-59
2023/04/29 11:38:50;;;;;;;13.15;6.20;;;589.20;1587.20;;;;;;5048367;28;20030;-64
2023/04/29 11:41:16;;;;;;;7.78;6.10;;;588.80;1561.60;;;;;;5049082;28;20017;-61
2023/04/29 11:43:45;;;;;;;11.68;7.80;;;589.30;1587.20;;;;;;5048895;28;20017;-60
2023/04/29 11:46:15;;;;;;;17.13;7.03;;;564.00;1587.20;;;;;;5046010;28;20031;-64
2023/04/29 11:48:47;;;;;;;8.30;5.20;;;589.30;1587.20;;;;;;5046375;28;20105;-72
2023/04/29 11:51:14;;;;;;;9.87;6.53;;;589.50;1561.60;;;;;;5046995;28;20534;-65
2023/04/29 11:53:40;;;;;;;9.00;6.25;;;589.60;1561.60;;;;;;5046704;28;20389;-59
2023/04/29 11:56:10;;;;;;;9.60;5.65;;;589.70;1561.60;;;;;;5047793;28;20059;-64
2023/04/29 11:58:37;;;;;;;7.05;5.00;;;589.60;1587.20;;;;;;5046998;28;20033;-60
2023/04/29 12:01:03;;;;;;;7.45;5.60;;;589.40;1612.80;;;;;;5047391;28;20372;-69
2023/04/29 12:03:31;;;;;;;9.05;5.43;;;588.80;1612.80;;;;;;5047076;28;20036;-60
2023/04/29 12:05:57;;;;;;;11.00;6.45;;;588.90;1612.80;;;;;;5047281;28;20159;-65